sensor_id;sensor_type;location;lat;lon;timestamp;temperature;humidity
9265;DHT22;4669;49.594;10.958;2022-09-16T04:20:30;14.40;99.90
9265;DHT22;4669;49.594;10.958;2022-09-16T04:25:34;14.30;99.90
9265;DHT22;4669;49.594;10.958;2022-09-16T04:30:36;14.40;99.90
9265;DHT22;4669;49.594;10.958;2022-09-16T04:35:39;14.50;99.90
9265;DHT22;4669;49.594;10.958;2022-09-16T04:40:41;14.50;99.90
9265;DHT22;4669;49.594;10.958;2022-09-16T04:45:43;14.60;99.90
9265;DHT22;4669;49.594;10.958;2022-09-16T04:50:47;14.60;99.90
9265;DHT22;4669;49.594;10.958;2022-09-16T04:55:49;14.50;99.90
9265;DHT22;4669;49.594;10.958;2022-09-16T05:00:51;14.60;99.90
9265;DHT22;4669;49.594;10.958;2022-09-16T05:05:57;14.50;99.90
9265;DHT22;4669;49.594;10.958;2022-09-16T05:11:06;14.40;99.90
9265;DHT22;4669;49.594;10.958;2022-09-16T05:16:11;14.20;99.90
9265;DHT22;4669;49.594;10.958;2022-09-16T05:21:16;14.10;99.90
9265;DHT22;4669;49.594;10.958;2022-09-16T05:26:20;14.00;99.90
9265;DHT22;4669;49.594;10.958;2022-09-16T05:31:25;14.00;99.90
9265;DHT22;4669;49.594;10.958;2022-09-16T05:36:30;14.00;99.90
9265;DHT22;4669;49.594;10.958;2022-09-16T05:41:32;13.90;99.90
9265;DHT22;4669;49.594;10.958;2022-09-16T05:46:34;14.00;99.90
9265;DHT22;4669;49.594;10.958;2022-09-16T05:51:39;14.10;99.90
9265;DHT22;4669;49.594;10.958;2022-09-16T05:56:42;14.20;99.90
9265;DHT22;4669;49.594;10.958;2022-09-16T06:01:44;14.10;99.90
9265;DHT22;4669;49.594;10.958;2022-09-16T06:06:47;14.10;99.90
9265;DHT22;4669;49.594;10.958;2022-09-16T06:11:51;14.10;99.90
9265;DHT22;4669;49.594;10.958;2022-09-16T06:16:53;14.20;99.90
9265;DHT22;4669;49.594;10.958;2022-09-16T06:21:56;14.20;99.90
9265;DHT22;4669;49.594;10.958;2022-09-16T06:26:58;14.10;99.90
9265;DHT22;4669;49.594;10.958;2022-09-16T06:32:00;14.10;99.90
9265;DHT22;4669;49.594;10.958;2022-09-16T06:37:04;14.00;99.90
9265;DHT22;4669;49.594;10.958;2022-09-16T06:42:06;14.10;99.90
9265;DHT22;4669;49.594;10.958;2022-09-16T06:47:14;14.00;99.90
9265;DHT22;4669;49.594;10.958;2022-09-16T06:52:17;14.10;99.90
9265;DHT22;4669;49.594;10.958;2022-09-16T06:57:20;14.00;99.90
9265;DHT22;4669;49.594;10.958;2022-09-16T07:02:23;14.00;99.90
9265;DHT22;4669;49.594;10.958;2022-09-16T07:07:28;14.10;99.90
9265;DHT22;4669;49.594;10.958;2022-09-16T07:12:31;14.10;99.90
9265;DHT22;4669;49.594;10.958;2022-09-16T07:17:33;14.10;99.90
9265;DHT22;4669;49.594;10.958;2022-09-16T07:22:36;14.10;99.90
9265;DHT22;4669;49.594;10.958;2022-09-16T07:27:38;14.10;99.90
9265;DHT22;4669;49.594;10.958;2022-09-16T07:32:40;14.10;99.90
9265;DHT22;4669;49.594;10.958;2022-09-16T07:37:43;14.20;99.90
9265;DHT22;4669;49.594;10.958;2022-09-16T07:42:45;14.30;99.90
9265;DHT22;4669;49.594;10.958;2022-09-16T07:47:48;14.30;99.90
9265;DHT22;4669;49.594;10.958;2022-09-16T07:52:54;14.30;99.90
9265;DHT22;4669;49.594;10.958;2022-09-16T07:57:56;14.30;99.90
9265;DHT22;4669;49.594;10.958;2022-09-16T08:02:58;14.30;99.90
9265;DHT22;4669;49.594;10.958;2022-09-16T08:08:01;14.30;99.90
9265;DHT22;4669;49.594;10.958;2022-09-16T08:13:04;14.40;99.90
9265;DHT22;4669;49.594;10.958;2022-09-16T08:18:06;14.20;99.90
9265;DHT22;4669;49.594;10.958;2022-09-16T08:23:10;14.20;99.90
9265;DHT22;4669;49.594;10.958;2022-09-16T08:28:14;14.40;99.90
9265;DHT22;4669;49.594;10.958;2022-09-16T08:33:17;14.50;99.90
9265;DHT22;4669;49.594;10.958;2022-09-16T08:38:23;14.60;99.90
9265;DHT22;4669;49.594;10.958;2022-09-16T08:43:30;14.60;99.90
9265;DHT22;4669;49.594;10.958;2022-09-16T08:48:42;14.70;99.90
9265;DHT22;4669;49.594;10.958;2022-09-16T08:53:53;14.70;99.90
9265;DHT22;4669;49.594;10.958;2022-09-16T08:58:59;14.90;99.90
9265;DHT22;4669;49.594;10.958;2022-09-16T09:04:02;14.90;99.90
9265;DHT22;4669;49.594;10.958;2022-09-16T09:09:14;14.90;99.90
9265;DHT22;4669;49.594;10.958;2022-09-16T09:14:30;14.90;99.90
9265;DHT22;4669;49.594;10.958;2022-09-16T09:19:47;15.10;99.90
9265;DHT22;4669;49.594;10.958;2022-09-16T09:25:04;15.10;99.90
9265;DHT22;4669;49.594;10.958;2022-09-16T09:30:16;15.30;99.90
9265;DHT22;4669;49.594;10.958;2022-09-16T09:35:27;15.50;97.80
9265;DHT22;4669;49.594;10.958;2022-09-16T09:40:39;15.50;97.60
9265;DHT22;4669;49.594;10.958;2022-09-16T09:45:52;15.50;97.90
9265;DHT22;4669;49.594;10.958;2022-09-16T09:50:55;15.50;97.00
9265;DHT22;4669;49.594;10.958;2022-09-16T09:56:13;15.70;96.50
9265;DHT22;4669;49.594;10.958;2022-09-16T10:01:18;15.60;95.80
9265;DHT22;4669;49.594;10.958;2022-09-16T10:06:25;15.40;96.80
9265;DHT22;4669;49.594;10.958;2022-09-16T10:11:30;15.40;97.50
9265;DHT22;4669;49.594;10.958;2022-09-16T10:16:35;15.40;97.50
9265;DHT22;4669;49.594;10.958;2022-09-16T10:21:42;15.50;98.10
9265;DHT22;4669;49.594;10.958;2022-09-16T10:26:47;15.60;97.60
9265;DHT22;4669;49.594;10.958;2022-09-16T10:31:49;15.70;97.00
9265;DHT22;4669;49.594;10.958;2022-09-16T10:37:03;15.70;97.00
9265;DHT22;4669;49.594;10.958;2022-09-16T10:42:15;15.70;97.10
9265;DHT22;4669;49.594;10.958;2022-09-16T10:47:20;15.60;96.90
9265;DHT22;4669;49.594;10.958;2022-09-16T10:52:25;15.60;97.40
9265;DHT22;4669;49.594;10.958;2022-09-16T10:57:30;15.50;97.50
9265;DHT22;4669;49.594;10.958;2022-09-16T11:02:45;15.60;98.00
9265;DHT22;4669;49.594;10.958;2022-09-16T11:07:57;15.50;98.00
9265;DHT22;4669;49.594;10.958;2022-09-16T11:18:40;15.30;97.30
9265;DHT22;4669;49.594;10.958;2022-09-16T11:23:55;15.20;98.00
9265;DHT22;4669;49.594;10.958;2022-09-16T11:29:17;15.20;98.10
9265;DHT22;4669;49.594;10.958;2022-09-16T11:34:38;15.10;98.20
9265;DHT22;4669;49.594;10.958;2022-09-16T11:40:07;15.00;98.70
9265;DHT22;4669;49.594;10.958;2022-09-16T11:45:31;14.90;99.20
9265;DHT22;4669;49.594;10.958;2022-09-16T11:50:44;14.90;99.50
9265;DHT22;4669;49.594;10.958;2022-09-16T11:55:52;14.90;99.60
9265;DHT22;4669;49.594;10.958;2022-09-16T12:01:01;15.00;99.60
9265;DHT22;4669;49.594;10.958;2022-09-16T12:06:08;15.00;99.50
9265;DHT22;4669;49.594;10.958;2022-09-16T12:11:18;15.00;99.80
9265;DHT22;4669;49.594;10.958;2022-09-16T12:16:28;15.00;99.60
9265;DHT22;4669;49.594;10.958;2022-09-16T12:21:36;15.00;99.60
9265;DHT22;4669;49.594;10.958;2022-09-16T12:26:42;15.00;99.90
9265;DHT22;4669;49.594;10.958;2022-09-16T12:31:49;15.00;99.90
9265;DHT22;4669;49.594;10.958;2022-09-16T12:36:56;15.10;99.80
9265;DHT22;4669;49.594;10.958;2022-09-16T12:42:20;15.00;99.80
9265;DHT22;4669;49.594;10.958;2022-09-16T12:47:39;15.10;99.90
9265;DHT22;4669;49.594;10.958;2022-09-16T12:53:18;15.30;99.80
9265;DHT22;4669;49.594;10.958;2022-09-16T12:58:46;15.30;99.90
9265;DHT22;4669;49.594;10.958;2022-09-16T13:03:54;15.30;99.60
9265;DHT22;4669;49.594;10.958;2022-09-16T13:09:08;15.00;99.90
9265;DHT22;4669;49.594;10.958;2022-09-16T13:14:22;15.00;99.90
9265;DHT22;4669;49.594;10.958;2022-09-16T13:19:36;15.00;99.90
9265;DHT22;4669;49.594;10.958;2022-09-16T13:24:43;15.10;99.90
9265;DHT22;4669;49.594;10.958;2022-09-16T13:29:46;15.20;99.90
9265;DHT22;4669;49.594;10.958;2022-09-16T13:34:59;15.20;99.90
9265;DHT22;4669;49.594;10.958;2022-09-16T13:40:16;15.10;99.90
9265;DHT22;4669;49.594;10.958;2022-09-16T13:45:30;15.00;99.90
9265;DHT22;4669;49.594;10.958;2022-09-16T13:50:34;15.00;99.90
9265;DHT22;4669;49.594;10.958;2022-09-16T13:55:39;15.40;99.90
9265;DHT22;4669;49.594;10.958;2022-09-16T14:00:49;15.90;99.90
9265;DHT22;4669;49.594;10.958;2022-09-16T14:06:17;16.40;99.90
9265;DHT22;4669;49.594;10.958;2022-09-16T14:11:25;16.70;99.70
9265;DHT22;4669;49.594;10.958;2022-09-16T14:16:32;16.80;99.50
9265;DHT22;4669;49.594;10.958;2022-09-16T14:26:49;17.40;97.90
9265;DHT22;4669;49.594;10.958;2022-09-16T14:31:54;17.70;96.20
9265;DHT22;4669;49.594;10.958;2022-09-16T14:36:59;18.00;92.60
9265;DHT22;4669;49.594;10.958;2022-09-16T14:42:04;18.00;91.90
9265;DHT22;4669;49.594;10.958;2022-09-16T14:47:20;17.70;93.20
9265;DHT22;4669;49.594;10.958;2022-09-16T14:52:27;17.30;93.40
9265;DHT22;4669;49.594;10.958;2022-09-16T14:57:30;17.20;93.30
9265;DHT22;4669;49.594;10.958;2022-09-16T15:02:36;17.20;92.50
9265;DHT22;4669;49.594;10.958;2022-09-16T15:13:00;17.40;91.70
9265;DHT22;4669;49.594;10.958;2022-09-16T15:18:07;17.00;92.30
9265;DHT22;4669;49.594;10.958;2022-09-16T15:23:19;16.90;92.60
9265;DHT22;4669;49.594;10.958;2022-09-16T15:28:24;16.70;93.10
9265;DHT22;4669;49.594;10.958;2022-09-16T15:33:32;16.50;93.30
9265;DHT22;4669;49.594;10.958;2022-09-16T15:38:34;16.70;93.50
9265;DHT22;4669;49.594;10.958;2022-09-16T15:43:39;16.60;93.70
9265;DHT22;4669;49.594;10.958;2022-09-16T15:48:44;16.30;94.20
9265;DHT22;4669;49.594;10.958;2022-09-16T15:53:48;16.40;94.50
9265;DHT22;4669;49.594;10.958;2022-09-16T15:58:56;16.60;94.00
9265;DHT22;4669;49.594;10.958;2022-09-16T16:03:59;16.50;94.40
9265;DHT22;4669;49.594;10.958;2022-09-16T16:09:02;16.20;95.40
9265;DHT22;4669;49.594;10.958;2022-09-16T16:14:06;16.20;97.80
9265;DHT22;4669;49.594;10.958;2022-09-16T16:19:08;15.60;99.90
9265;DHT22;4669;49.594;10.958;2022-09-16T16:24:10;14.80;99.90
9265;DHT22;4669;49.594;10.958;2022-09-16T16:29:15;14.40;99.90
9265;DHT22;4669;49.594;10.958;2022-09-16T16:34:16;14.30;99.90
9265;DHT22;4669;49.594;10.958;2022-09-16T16:39:18;14.40;99.90
9265;DHT22;4669;49.594;10.958;2022-09-16T16:44:23;14.40;99.90
9265;DHT22;4669;49.594;10.958;2022-09-16T16:49:25;14.40;99.90
9265;DHT22;4669;49.594;10.958;2022-09-16T16:54:28;14.40;99.90
9265;DHT22;4669;49.594;10.958;2022-09-16T16:59:31;14.30;99.90
9265;DHT22;4669;49.594;10.958;2022-09-16T17:04:33;14.30;99.90
9265;DHT22;4669;49.594;10.958;2022-09-16T17:09:35;14.30;99.90
9265;DHT22;4669;49.594;10.958;2022-09-16T17:14:39;14.00;99.90
9265;DHT22;4669;49.594;10.958;2022-09-16T17:19:41;14.00;99.90
9265;DHT22;4669;49.594;10.958;2022-09-16T17:24:43;14.00;99.90
9265;DHT22;4669;49.594;10.958;2022-09-16T17:29:47;14.00;99.90
9265;DHT22;4669;49.594;10.958;2022-09-16T17:34:49;13.90;99.90
9265;DHT22;4669;49.594;10.958;2022-09-16T17:39:51;13.90;99.90
9265;DHT22;4669;49.594;10.958;2022-09-16T17:44:54;13.80;99.90
9265;DHT22;4669;49.594;10.958;2022-09-16T17:49:56;13.70;99.90
9265;DHT22;4669;49.594;10.958;2022-09-16T17:54:59;13.70;99.90
9265;DHT22;4669;49.594;10.958;2022-09-16T18:00:03;13.60;99.90
9265;DHT22;4669;49.594;10.958;2022-09-16T18:05:13;13.60;99.90
9265;DHT22;4669;49.594;10.958;2022-09-16T18:10:15;13.50;99.90
9265;DHT22;4669;49.594;10.958;2022-09-16T18:15:19;13.50;99.90
9265;DHT22;4669;49.594;10.958;2022-09-16T18:20:21;13.50;99.90
9265;DHT22;4669;49.594;10.958;2022-09-16T18:25:24;13.50;99.90
9265;DHT22;4669;49.594;10.958;2022-09-16T18:30:27;13.50;99.90
9265;DHT22;4669;49.594;10.958;2022-09-16T18:35:29;13.50;99.90
9265;DHT22;4669;49.594;10.958;2022-09-16T18:40:36;13.50;99.90
9265;DHT22;4669;49.594;10.958;2022-09-16T18:45:40;13.60;99.90
9265;DHT22;4669;49.594;10.958;2022-09-16T18:50:42;13.60;99.90
9265;DHT22;4669;49.594;10.958;2022-09-16T18:55:44;13.50;99.90
9265;DHT22;4669;49.594;10.958;2022-09-16T19:00:47;13.50;99.90
9265;DHT22;4669;49.594;10.958;2022-09-16T19:05:54;13.60;99.90
9265;DHT22;4669;49.594;10.958;2022-09-16T19:11:01;13.60;99.90
9265;DHT22;4669;49.594;10.958;2022-09-16T19:16:04;13.60;99.90
9265;DHT22;4669;49.594;10.958;2022-09-16T19:21:12;13.50;99.90
9265;DHT22;4669;49.594;10.958;2022-09-16T19:26:15;13.40;99.90
9265;DHT22;4669;49.594;10.958;2022-09-16T19:31:18;13.40;99.90
9265;DHT22;4669;49.594;10.958;2022-09-16T19:36:22;13.30;99.90
9265;DHT22;4669;49.594;10.958;2022-09-16T19:41:26;13.20;99.90
9265;DHT22;4669;49.594;10.958;2022-09-16T19:46:33;13.10;99.90
9265;DHT22;4669;49.594;10.958;2022-09-16T19:51:35;13.20;99.90
9265;DHT22;4669;49.594;10.958;2022-09-16T19:56:37;13.20;99.90
9265;DHT22;4669;49.594;10.958;2022-09-16T20:01:41;13.10;99.90
9265;DHT22;4669;49.594;10.958;2022-09-16T20:06:43;13.00;99.90
9265;DHT22;4669;49.594;10.958;2022-09-16T20:11:46;12.90;99.90
9265;DHT22;4669;49.594;10.958;2022-09-16T20:16:50;12.80;99.90
9265;DHT22;4669;49.594;10.958;2022-09-16T20:21:52;12.90;99.90
9265;DHT22;4669;49.594;10.958;2022-09-16T20:26:54;12.80;99.90
9265;DHT22;4669;49.594;10.958;2022-09-16T20:31:58;12.90;99.90
9265;DHT22;4669;49.594;10.958;2022-09-16T20:37:00;12.80;99.90
9265;DHT22;4669;49.594;10.958;2022-09-16T20:42:02;12.70;99.90
9265;DHT22;4669;49.594;10.958;2022-09-16T20:47:05;12.70;99.90
9265;DHT22;4669;49.594;10.958;2022-09-16T20:52:07;12.60;99.90
9265;DHT22;4669;49.594;10.958;2022-09-16T20:57:09;12.60;99.90
9265;DHT22;4669;49.594;10.958;2022-09-16T21:02:13;12.50;99.90
9265;DHT22;4669;49.594;10.958;2022-09-16T21:07:15;12.40;99.90
9265;DHT22;4669;49.594;10.958;2022-09-16T21:12:17;12.40;99.90
9265;DHT22;4669;49.594;10.958;2022-09-16T21:17:20;12.40;99.90
9265;DHT22;4669;49.594;10.958;2022-09-16T21:22:22;12.30;99.90
9265;DHT22;4669;49.594;10.958;2022-09-16T21:27:24;12.20;99.90
9265;DHT22;4669;49.594;10.958;2022-09-16T21:32:27;12.10;99.90
9265;DHT22;4669;49.594;10.958;2022-09-16T21:37:31;12.10;99.90
9265;DHT22;4669;49.594;10.958;2022-09-16T21:42:33;12.00;99.90
9265;DHT22;4669;49.594;10.958;2022-09-16T21:47:36;12.00;99.90
9265;DHT22;4669;49.594;10.958;2022-09-16T21:52:38;12.00;99.90
9265;DHT22;4669;49.594;10.958;2022-09-16T21:57:40;11.90;99.90
